sensor_id;sensor_type;location;lat;lon;timestamp;pressure;altitude;pressure_sealevel;temperature;humidity
44140;BME280;29803;51.048;4.686;2023-11-21T00:00:56;101088.22;;;10.03;100.00
44140;BME280;29803;51.048;4.686;2023-11-21T00:03:27;101093.72;;;10.02;100.00
44140;BME280;29803;51.048;4.686;2023-11-21T00:05:58;101096.41;;;10.02;100.00
44140;BME280;29803;51.048;4.686;2023-11-21T00:08:29;101101.94;;;10.00;100.00
44140;BME280;29803;51.048;4.686;2023-11-21T00:11:00;101096.41;;;10.02;100.00
44140;BME280;29803;51.048;4.686;2023-11-21T00:13:31;101107.13;;;10.02;100.00
44140;BME280;29803;51.048;4.686;2023-11-21T00:16:02;101098.78;;;10.05;100.00
44140;BME280;29803;51.048;4.686;2023-11-21T00:18:34;101098.09;;;10.03;100.00
44140;BME280;29803;51.048;4.686;2023-11-21T00:21:06;101095.56;;;10.01;100.00
44140;BME280;29803;51.048;4.686;2023-11-21T00:23:36;101094.75;;;10.01;100.00
44140;BME280;29803;51.048;4.686;2023-11-21T00:26:07;101099.72;;;9.96;100.00
44140;BME280;29803;51.048;4.686;2023-11-21T00:28:37;101102.41;;;9.96;100.00
44140;BME280;29803;51.048;4.686;2023-11-21T00:31:08;101102.25;;;9.97;100.00
44140;BME280;29803;51.048;4.686;2023-11-21T00:33:38;101103.25;;;9.96;100.00
44140;BME280;29803;51.048;4.686;2023-11-21T00:36:09;101107.78;;;9.96;100.00
44140;BME280;29803;51.048;4.686;2023-11-21T00:38:39;101106.75;;;9.97;100.00
44140;BME280;29803;51.048;4.686;2023-11-21T00:41:10;101107.97;;;10.02;100.00
44140;BME280;29803;51.048;4.686;2023-11-21T00:43:40;101113.34;;;10.02;100.00
44140;BME280;29803;51.048;4.686;2023-11-21T00:46:11;101112.50;;;10.02;100.00
44140;BME280;29803;51.048;4.686;2023-11-21T00:48:41;101119.69;;;10.01;100.00
44140;BME280;29803;51.048;4.686;2023-11-21T00:51:12;101114.63;;;9.98;100.00
44140;BME280;29803;51.048;4.686;2023-11-21T00:53:42;101121.53;;;10.01;100.00
44140;BME280;29803;51.048;4.686;2023-11-21T00:56:13;101112.97;;;9.97;100.00
44140;BME280;29803;51.048;4.686;2023-11-21T00:58:45;101109.97;;;10.00;100.00
44140;BME280;29803;51.048;4.686;2023-11-21T01:01:20;101111.97;;;9.98;100.00
44140;BME280;29803;51.048;4.686;2023-11-21T01:03:53;101118.50;;;9.96;100.00
44140;BME280;29803;51.048;4.686;2023-11-21T01:06:24;101117.03;;;10.01;100.00
44140;BME280;29803;51.048;4.686;2023-11-21T01:08:55;101116.34;;;9.99;100.00
44140;BME280;29803;51.048;4.686;2023-11-21T01:11:25;101116.34;;;9.99;100.00
44140;BME280;29803;51.048;4.686;2023-11-21T01:13:56;101120.00;;;9.98;100.00
44140;BME280;29803;51.048;4.686;2023-11-21T01:16:27;101122.38;;;10.01;100.00
44140;BME280;29803;51.048;4.686;2023-11-21T01:18:59;101125.06;;;10.01;100.00
44140;BME280;29803;51.048;4.686;2023-11-21T01:21:29;101126.38;;;9.97;100.00
44140;BME280;29803;51.048;4.686;2023-11-21T01:24:00;101129.03;;;9.97;100.00
44140;BME280;29803;51.048;4.686;2023-11-21T01:26:31;101129.75;;;9.99;100.00
44140;BME280;29803;51.048;4.686;2023-11-21T01:29:01;101133.41;;;9.98;100.00
44140;BME280;29803;51.048;4.686;2023-11-21T01:31:32;101138.94;;;9.97;100.00
44140;BME280;29803;51.048;4.686;2023-11-21T01:34:02;101142.78;;;9.94;100.00
44140;BME280;29803;51.048;4.686;2023-11-21T01:36:33;101144.06;;;9.90;100.00
44140;BME280;29803;51.048;4.686;2023-11-21T01:39:04;101145.38;;;9.86;100.00
44140;BME280;29803;51.048;4.686;2023-11-21T01:41:38;101144.31;;;9.79;100.00
44140;BME280;29803;51.048;4.686;2023-11-21T01:44:09;101147.44;;;9.74;100.00
44140;BME280;29803;51.048;4.686;2023-11-21T01:46:40;101148.38;;;9.65;100.00
44140;BME280;29803;51.048;4.686;2023-11-21T01:49:12;101150.78;;;9.58;100.00
44140;BME280;29803;51.048;4.686;2023-11-21T01:51:47;101152.41;;;9.51;100.00
44140;BME280;29803;51.048;4.686;2023-11-21T01:54:20;101160.22;;;9.45;100.00
44140;BME280;29803;51.048;4.686;2023-11-21T01:56:51;101161.59;;;9.49;100.00
44140;BME280;29803;51.048;4.686;2023-11-21T01:59:22;101162.06;;;9.44;100.00
44140;BME280;29803;51.048;4.686;2023-11-21T02:01:53;101171.50;;;9.39;100.00
44140;BME280;29803;51.048;4.686;2023-11-21T02:04:23;101165.31;;;9.38;100.00
44140;BME280;29803;51.048;4.686;2023-11-21T02:06:54;101163.25;;;9.32;100.00
44140;BME280;29803;51.048;4.686;2023-11-21T02:09:26;101169.59;;;9.31;100.00
44140;BME280;29803;51.048;4.686;2023-11-21T02:11:57;101179.63;;;9.29;100.00
44140;BME280;29803;51.048;4.686;2023-11-21T02:14:29;101172.28;;;9.31;100.00
44140;BME280;29803;51.048;4.686;2023-11-21T02:17:01;101172.13;;;9.32;100.00
44140;BME280;29803;51.048;4.686;2023-11-21T02:19:31;101169.44;;;9.32;100.00
44140;BME280;29803;51.048;4.686;2023-11-21T02:22:02;101178.47;;;9.31;100.00
44140;BME280;29803;51.048;4.686;2023-11-21T02:24:36;101178.75;;;9.28;100.00
44140;BME280;29803;51.048;4.686;2023-11-21T02:27:07;101180.06;;;9.24;100.00
44140;BME280;29803;51.048;4.686;2023-11-21T02:29:37;101186.41;;;9.23;100.00
44140;BME280;29803;51.048;4.686;2023-11-21T02:32:08;101189.63;;;9.27;100.00
44140;BME280;29803;51.048;4.686;2023-11-21T02:34:40;101179.75;;;9.27;100.00
44140;BME280;29803;51.048;4.686;2023-11-21T02:37:11;101177.91;;;9.28;100.00
44140;BME280;29803;51.048;4.686;2023-11-21T02:39:41;101180.75;;;9.26;100.00
44140;BME280;29803;51.048;4.686;2023-11-21T02:42:12;101174.56;;;9.26;100.00
44140;BME280;29803;51.048;4.686;2023-11-21T02:44:42;101182.59;;;9.26;100.00
44140;BME280;29803;51.048;4.686;2023-11-21T02:47:13;101176.69;;;9.22;100.00
44140;BME280;29803;51.048;4.686;2023-11-21T02:49:44;101179.91;;;9.26;100.00
44140;BME280;29803;51.048;4.686;2023-11-21T02:52:14;101186.66;;;9.30;100.00
44140;BME280;29803;51.048;4.686;2023-11-21T02:54:45;101187.72;;;9.37;100.00
44140;BME280;29803;51.048;4.686;2023-11-21T02:57:15;101185.44;;;9.42;100.00
44140;BME280;29803;51.048;4.686;2023-11-21T02:59:47;101186.00;;;9.46;100.00
44140;BME280;29803;51.048;4.686;2023-11-21T03:02:18;101176.50;;;9.51;100.00
44140;BME280;29803;51.048;4.686;2023-11-21T03:04:49;101179.03;;;9.53;100.00
44140;BME280;29803;51.048;4.686;2023-11-21T03:07:20;101187.78;;;9.55;100.00
44140;BME280;29803;51.048;4.686;2023-11-21T03:09:50;101184.78;;;9.58;100.00
44140;BME280;29803;51.048;4.686;2023-11-21T03:12:21;101183.81;;;9.59;100.00
44140;BME280;29803;51.048;4.686;2023-11-21T03:14:52;101192.69;;;9.59;100.00
44140;BME280;29803;51.048;4.686;2023-11-21T03:17:22;101193.53;;;9.60;100.00
44140;BME280;29803;51.048;4.686;2023-11-21T03:19:53;101198.56;;;9.63;100.00
44140;BME280;29803;51.048;4.686;2023-11-21T03:22:23;101192.22;;;9.64;100.00
44140;BME280;29803;51.048;4.686;2023-11-21T03:24:54;101189.22;;;9.67;100.00
44140;BME280;29803;51.048;4.686;2023-11-21T03:27:24;101183.72;;;9.69;100.00
44140;BME280;29803;51.048;4.686;2023-11-21T03:29:55;101195.44;;;9.68;100.00
44140;BME280;29803;51.048;4.686;2023-11-21T03:32:25;101191.06;;;9.67;100.00
44140;BME280;29803;51.048;4.686;2023-11-21T03:34:57;101193.75;;;9.67;100.00
44140;BME280;29803;51.048;4.686;2023-11-21T03:37:28;101200.66;;;9.69;100.00
44140;BME280;29803;51.048;4.686;2023-11-21T03:39:58;101204.69;;;9.73;100.00
44140;BME280;29803;51.048;4.686;2023-11-21T03:42:29;101218.34;;;9.80;100.00
44140;BME280;29803;51.048;4.686;2023-11-21T03:45:00;101213.66;;;9.82;100.00
44140;BME280;29803;51.048;4.686;2023-11-21T03:47:30;101208.13;;;9.83;100.00
44140;BME280;29803;51.048;4.686;2023-11-21T03:50:01;101206.16;;;9.85;100.00
44140;BME280;29803;51.048;4.686;2023-11-21T03:52:31;101206.34;;;9.84;100.00
44140;BME280;29803;51.048;4.686;2023-11-21T03:55:02;101210.38;;;9.88;100.00
44140;BME280;29803;51.048;4.686;2023-11-21T03:57:33;101217.28;;;9.91;100.00
44140;BME280;29803;51.048;4.686;2023-11-21T04:00:04;101215.44;;;9.91;100.00
44140;BME280;29803;51.048;4.686;2023-11-21T04:02:38;101216.94;;;9.94;100.00
44140;BME280;29803;51.048;4.686;2023-11-21T04:05:09;101219.50;;;9.95;100.00
44140;BME280;29803;51.048;4.686;2023-11-21T04:07:40;101219.16;;;9.98;100.00
44140;BME280;29803;51.048;4.686;2023-11-21T04:10:10;101221.72;;;10.00;100.00
44140;BME280;29803;51.048;4.686;2023-11-21T04:12:43;101233.13;;;10.02;100.00
44140;BME280;29803;51.048;4.686;2023-11-21T04:15:13;101230.28;;;10.03;100.00
44140;BME280;29803;51.048;4.686;2023-11-21T04:17:44;101237.47;;;10.03;100.00
44140;BME280;29803;51.048;4.686;2023-11-21T04:20:15;101240.47;;;10.00;100.00
44140;BME280;29803;51.048;4.686;2023-11-21T04:22:46;101245.97;;;9.98;100.00
44140;BME280;29803;51.048;4.686;2023-11-21T04:25:16;101251.34;;;9.98;100.00
44140;BME280;29803;51.048;4.686;2023-11-21T04:27:47;101254.00;;;9.98;100.00
44140;BME280;29803;51.048;4.686;2023-11-21T04:30:17;101258.06;;;10.02;100.00
44140;BME280;29803;51.048;4.686;2023-11-21T04:32:48;101261.97;;;10.08;100.00
44140;BME280;29803;51.048;4.686;2023-11-21T04:35:18;101259.84;;;10.11;100.00
44140;BME280;29803;51.048;4.686;2023-11-21T04:37:49;101254.31;;;10.13;100.00
44140;BME280;29803;51.048;4.686;2023-11-21T04:40:21;101257.72;;;10.15;100.00
44140;BME280;29803;51.048;4.686;2023-11-21T04:42:51;101255.72;;;10.17;100.00
44140;BME280;29803;51.048;4.686;2023-11-21T04:45:22;101265.31;;;10.20;100.00
44140;BME280;29803;51.048;4.686;2023-11-21T04:47:52;101263.47;;;10.20;100.00
44140;BME280;29803;51.048;4.686;2023-11-21T04:50:23;101270.91;;;10.26;100.00
44140;BME280;29803;51.048;4.686;2023-11-21T04:52:53;101274.13;;;10.30;100.00
44140;BME280;29803;51.048;4.686;2023-11-21T04:55:24;101279.19;;;10.33;100.00
44140;BME280;29803;51.048;4.686;2023-11-21T04:57:56;101285.25;;;10.35;100.00
44140;BME280;29803;51.048;4.686;2023-11-21T05:00:27;101284.91;;;10.38;100.00
44140;BME280;29803;51.048;4.686;2023-11-21T05:02:57;101281.41;;;10.37;100.00
44140;BME280;29803;51.048;4.686;2023-11-21T05:05:28;101284.91;;;10.38;100.00
44140;BME280;29803;51.048;4.686;2023-11-21T05:07:59;101289.16;;;10.41;100.00
44140;BME280;29803;51.048;4.686;2023-11-21T05:10:31;101288.16;;;10.42;100.00
44140;BME280;29803;51.048;4.686;2023-11-21T05:13:01;101288.81;;;10.44;100.00
44140;BME280;29803;51.048;4.686;2023-11-21T05:15:32;101299.41;;;10.45;100.00
44140;BME280;29803;51.048;4.686;2023-11-21T05:18:03;101297.41;;;10.47;100.00
44140;BME280;29803;51.048;4.686;2023-11-21T05:20:33;101302.00;;;10.55;100.00
44140;BME280;29803;51.048;4.686;2023-11-21T05:23:04;101299.47;;;10.53;100.00
44140;BME280;29803;51.048;4.686;2023-11-21T05:25:35;101305.84;;;10.52;100.00
44140;BME280;29803;51.048;4.686;2023-11-21T05:28:06;101304.00;;;10.53;100.00
44140;BME280;29803;51.048;4.686;2023-11-21T05:30:37;101313.03;;;10.52;100.00
44140;BME280;29803;51.048;4.686;2023-11-21T05:33:09;101318.41;;;10.52;100.00
44140;BME280;29803;51.048;4.686;2023-11-21T05:35:39;101317.41;;;10.53;100.00
44140;BME280;29803;51.048;4.686;2023-11-21T05:38:10;101320.25;;;10.51;100.00
44140;BME280;29803;51.048;4.686;2023-11-21T05:40:41;101336.19;;;10.53;100.00
44140;BME280;29803;51.048;4.686;2023-11-21T05:43:11;101333.66;;;10.51;100.00
44140;BME280;29803;51.048;4.686;2023-11-21T05:45:42;101335.34;;;10.52;100.00
44140;BME280;29803;51.048;4.686;2023-11-21T05:48:12;101337.03;;;10.53;100.00
44140;BME280;29803;51.048;4.686;2023-11-21T05:50:43;101339.88;;;10.52;100.00
44140;BME280;29803;51.048;4.686;2023-11-21T05:53:13;101342.38;;;10.53;100.00
44140;BME280;29803;51.048;4.686;2023-11-21T05:55:46;101353.13;;;10.53;100.00
44140;BME280;29803;51.048;4.686;2023-11-21T05:58:16;101352.16;;;10.54;100.00
44140;BME280;29803;51.048;4.686;2023-11-21T06:00:46;101358.88;;;10.58;100.00
44140;BME280;29803;51.048;4.686;2023-11-21T06:03:17;101355.88;;;10.61;100.00
44140;BME280;29803;51.048;4.686;2023-11-21T06:05:47;101359.25;;;10.63;100.00
44140;BME280;29803;51.048;4.686;2023-11-21T06:08:18;101372.81;;;10.62;100.00
44140;BME280;29803;51.048;4.686;2023-11-21T06:10:49;101370.69;;;10.66;100.00
44140;BME280;29803;51.048;4.686;2023-11-21T06:13:19;101374.75;;;10.70;100.00
44140;BME280;29803;51.048;4.686;2023-11-21T06:15:54;101371.38;;;10.68;100.00
44140;BME280;29803;51.048;4.686;2023-11-21T06:18:25;101374.06;;;10.68;100.00
44140;BME280;29803;51.048;4.686;2023-11-21T06:20:55;101372.91;;;10.70;100.00
44140;BME280;29803;51.048;4.686;2023-11-21T06:23:26;101375.88;;;10.67;100.00
44140;BME280;29803;51.048;4.686;2023-11-21T06:25:57;101376.19;;;10.64;100.00
44140;BME280;29803;51.048;4.686;2023-11-21T06:28:27;101386.78;;;10.66;100.00
44140;BME280;29803;51.048;4.686;2023-11-21T06:30:58;101378.34;;;10.60;100.00
44140;BME280;29803;51.048;4.686;2023-11-21T06:33:28;101380.03;;;10.61;100.00
44140;BME280;29803;51.048;4.686;2023-11-21T06:35:59;101387.09;;;10.62;100.00
44140;BME280;29803;51.048;4.686;2023-11-21T06:38:33;101398.81;;;10.61;100.00
44140;BME280;29803;51.048;4.686;2023-11-21T06:41:03;101397.13;;;10.60;100.00
44140;BME280;29803;51.048;4.686;2023-11-21T06:43:34;101388.38;;;10.58;100.00
44140;BME280;29803;51.048;4.686;2023-11-21T06:46:05;101394.75;;;10.57;100.00
44140;BME280;29803;51.048;4.686;2023-11-21T06:48:38;101391.53;;;10.54;100.00
44140;BME280;29803;51.048;4.686;2023-11-21T06:51:09;101397.88;;;10.53;100.00
44140;BME280;29803;51.048;4.686;2023-11-21T06:53:39;101404.25;;;10.52;100.00
44140;BME280;29803;51.048;4.686;2023-11-21T06:56:17;101402.88;;;10.48;100.00
44140;BME280;29803;51.048;4.686;2023-11-21T06:58:48;101405.53;;;10.48;100.00
44140;BME280;29803;51.048;4.686;2023-11-21T07:01:19;101405.88;;;10.45;100.00
44140;BME280;29803;51.048;4.686;2023-11-21T07:03:50;101410.53;;;10.43;100.00
44140;BME280;29803;51.048;4.686;2023-11-21T07:06:20;101413.38;;;10.41;100.00
44140;BME280;29803;51.048;4.686;2023-11-21T07:08:51;101420.69;;;10.39;100.00
44140;BME280;29803;51.048;4.686;2023-11-21T07:11:23;101430.47;;;10.40;100.00
44140;BME280;29803;51.048;4.686;2023-11-21T07:13:53;101439.19;;;10.42;100.00
44140;BME280;29803;51.048;4.686;2023-11-21T07:16:24;101442.25;;;10.47;100.00
44140;BME280;29803;51.048;4.686;2023-11-21T07:18:55;101452.69;;;10.50;100.00
44140;BME280;29803;51.048;4.686;2023-11-21T07:21:25;101459.47;;;10.54;100.00
44140;BME280;29803;51.048;4.686;2023-11-21T07:23:56;101466.06;;;10.60;100.00
44140;BME280;29803;51.048;4.686;2023-11-21T07:26:27;101477.03;;;10.67;100.00
44140;BME280;29803;51.048;4.686;2023-11-21T07:28:57;101477.25;;;10.73;100.00
44140;BME280;29803;51.048;4.686;2023-11-21T07:31:29;101481.78;;;10.73;100.00
44140;BME280;29803;51.048;4.686;2023-11-21T07:33:59;101476.41;;;10.73;100.00
44140;BME280;29803;51.048;4.686;2023-11-21T07:36:31;101480.31;;;10.78;100.00
44140;BME280;29803;51.048;4.686;2023-11-21T07:39:02;101479.19;;;10.81;100.00
44140;BME280;29803;51.048;4.686;2023-11-21T07:41:33;101477.19;;;10.83;100.00
44140;BME280;29803;51.048;4.686;2023-11-21T07:44:03;101493.16;;;10.84;100.00
44140;BME280;29803;51.048;4.686;2023-11-21T07:46:34;101486.78;;;10.85;100.00
44140;BME280;29803;51.048;4.686;2023-11-21T07:49:04;101486.47;;;10.88;100.00
44140;BME280;29803;51.048;4.686;2023-11-21T07:51:35;101492.38;;;10.92;100.00
44140;BME280;29803;51.048;4.686;2023-11-21T07:54:05;101495.44;;;10.97;100.00
44140;BME280;29803;51.048;4.686;2023-11-21T07:56:36;101497.84;;;11.00;100.00
44140;BME280;29803;51.048;4.686;2023-11-21T07:59:06;101505.56;;;11.03;100.00
44140;BME280;29803;51.048;4.686;2023-11-21T08:01:37;101505.94;;;11.08;100.00
44140;BME280;29803;51.048;4.686;2023-11-21T08:04:07;101508.34;;;11.11;100.00
44140;BME280;29803;51.048;4.686;2023-11-21T08:06:38;101508.63;;;11.08;100.00
44140;BME280;29803;51.048;4.686;2023-11-21T08:09:08;101510.88;;;11.13;100.00
44140;BME280;29803;51.048;4.686;2023-11-21T08:11:39;101520.59;;;11.14;100.00
44140;BME280;29803;51.048;4.686;2023-11-21T08:14:10;101518.78;;;11.14;100.00
44140;BME280;29803;51.048;4.686;2023-11-21T08:16:40;101529.19;;;11.18;100.00
44140;BME280;29803;51.048;4.686;2023-11-21T08:19:11;101527.22;;;11.20;100.00
44140;BME280;29803;51.048;4.686;2023-11-21T08:21:41;101526.53;;;11.18;100.00
44140;BME280;29803;51.048;4.686;2023-11-21T08:24:12;101532.59;;;11.20;100.00
44140;BME280;29803;51.048;4.686;2023-11-21T08:26:43;101534.28;;;11.21;100.00
44140;BME280;29803;51.048;4.686;2023-11-21T08:29:13;101539.31;;;11.24;100.00
44140;BME280;29803;51.048;4.686;2023-11-21T08:31:44;101542.84;;;11.24;100.00
44140;BME280;29803;51.048;4.686;2023-11-21T08:34:17;101531.97;;;11.26;100.00
44140;BME280;29803;51.048;4.686;2023-11-21T08:36:47;101543.41;;;11.28;100.00
44140;BME280;29803;51.048;4.686;2023-11-21T08:39:18;101549.16;;;11.33;100.00
44140;BME280;29803;51.048;4.686;2023-11-21T08:41:50;101550.53;;;11.37;100.00
44140;BME280;29803;51.048;4.686;2023-11-21T08:44:21;101549.78;;;11.45;100.00
44140;BME280;29803;51.048;4.686;2023-11-21T08:46:53;101546.00;;;11.55;100.00
44140;BME280;29803;51.048;4.686;2023-11-21T08:49:23;101548.53;;;11.57;100.00
44140;BME280;29803;51.048;4.686;2023-11-21T08:51:56;101551.81;;;11.68;100.00
44140;BME280;29803;51.048;4.686;2023-11-21T08:54:28;101554.47;;;11.68;100.00
44140;BME280;29803;51.048;4.686;2023-11-21T08:56:58;101551.97;;;11.67;100.00
44140;BME280;29803;51.048;4.686;2023-11-21T08:59:28;101557.13;;;11.60;100.00
44140;BME280;29803;51.048;4.686;2023-11-21T09:01:59;101549.53;;;11.56;100.00
44140;BME280;29803;51.048;4.686;2023-11-21T09:04:29;101554.44;;;11.60;100.00
44140;BME280;29803;51.048;4.686;2023-11-21T09:07:00;101558.97;;;11.60;100.00
44140;BME280;29803;51.048;4.686;2023-11-21T09:09:30;101567.25;;;11.66;100.00
44140;BME280;29803;51.048;4.686;2023-11-21T09:12:01;101561.53;;;11.70;100.00
44140;BME280;29803;51.048;4.686;2023-11-21T09:14:32;101571.94;;;11.82;100.00
44140;BME280;29803;51.048;4.686;2023-11-21T09:17:02;101584.91;;;11.87;100.00
44140;BME280;29803;51.048;4.686;2023-11-21T09:19:33;101584.66;;;11.98;100.00
44140;BME280;29803;51.048;4.686;2023-11-21T09:22:04;101578.50;;;12.06;100.00
44140;BME280;29803;51.048;4.686;2023-11-21T09:24:35;101588.06;;;12.08;100.00
44140;BME280;29803;51.048;4.686;2023-11-21T09:27:05;101583.78;;;12.15;100.00
44140;BME280;29803;51.048;4.686;2023-11-21T09:29:36;101586.13;;;12.18;100.00
44140;BME280;29803;51.048;4.686;2023-11-21T09:32:08;101584.63;;;12.24;100.00
44140;BME280;29803;51.048;4.686;2023-11-21T09:34:41;101595.75;;;12.29;100.00
44140;BME280;29803;51.048;4.686;2023-11-21T09:37:12;101608.53;;;12.27;100.00
44140;BME280;29803;51.048;4.686;2023-11-21T09:39:42;101608.72;;;12.26;100.00
44140;BME280;29803;51.048;4.686;2023-11-21T09:42:17;101621.09;;;12.18;100.00
44140;BME280;29803;51.048;4.686;2023-11-21T09:44:59;101621.25;;;12.17;100.00
44140;BME280;29803;51.048;4.686;2023-11-21T09:47:35;101622.28;;;12.16;100.00
44140;BME280;29803;51.048;4.686;2023-11-21T09:50:06;101626.56;;;12.09;100.00
44140;BME280;29803;51.048;4.686;2023-11-21T09:52:49;101626.63;;;12.17;100.00
44140;BME280;29803;51.048;4.686;2023-11-21T09:55:26;101628.78;;;12.13;100.00
44140;BME280;29803;51.048;4.686;2023-11-21T09:57:57;101627.31;;;12.19;100.00
44140;BME280;29803;51.048;4.686;2023-11-21T10:00:28;101635.94;;;12.23;100.00
44140;BME280;29803;51.048;4.686;2023-11-21T10:03:03;101624.22;;;12.32;100.00
44140;BME280;29803;51.048;4.686;2023-11-21T10:05:33;101637.72;;;12.40;100.00
44140;BME280;29803;51.048;4.686;2023-11-21T10:08:11;101636.91;;;12.48;100.00
44140;BME280;29803;51.048;4.686;2023-11-21T10:10:44;101634.41;;;12.46;100.00
44140;BME280;29803;51.048;4.686;2023-11-21T10:13:17;101639.13;;;12.52;100.00
44140;BME280;29803;51.048;4.686;2023-11-21T10:15:50;101651.06;;;12.50;100.00
44140;BME280;29803;51.048;4.686;2023-11-21T10:18:20;101650.56;;;12.54;100.00
44140;BME280;29803;51.048;4.686;2023-11-21T10:20:54;101653.13;;;12.56;100.00
44140;BME280;29803;51.048;4.686;2023-11-21T10:23:26;101654.81;;;12.57;100.00
44140;BME280;29803;51.048;4.686;2023-11-21T10:25:57;101657.81;;;12.54;100.00
44140;BME280;29803;51.048;4.686;2023-11-21T10:28:29;101663.00;;;12.47;100.00
44140;BME280;29803;51.048;4.686;2023-11-21T10:31:00;101658.28;;;12.49;100.00
44140;BME280;29803;51.048;4.686;2023-11-21T10:33:30;101663.47;;;12.42;100.00
44140;BME280;29803;51.048;4.686;2023-11-21T10:36:01;101668.69;;;12.44;100.00
44140;BME280;29803;51.048;4.686;2023-11-21T10:38:33;101675.28;;;12.50;100.00
44140;BME280;29803;51.048;4.686;2023-11-21T10:41:12;101664.19;;;12.53;100.00
44140;BME280;29803;51.048;4.686;2023-11-21T10:43:45;101674.66;;;12.56;100.00
44140;BME280;29803;51.048;4.686;2023-11-21T10:46:16;101678.47;;;12.45;100.00
44140;BME280;29803;51.048;4.686;2023-11-21T10:48:52;101683.16;;;12.43;100.00
44140;BME280;29803;51.048;4.686;2023-11-21T10:51:23;101676.75;;;12.44;100.00
44140;BME280;29803;51.048;4.686;2023-11-21T10:53:55;101679.13;;;12.47;100.00
44140;BME280;29803;51.048;4.686;2023-11-21T10:56:27;101682.47;;;12.41;100.00
44140;BME280;29803;51.048;4.686;2023-11-21T10:58:57;101680.50;;;12.51;100.00
44140;BME280;29803;51.048;4.686;2023-11-21T11:01:28;101683.22;;;12.51;100.00
44140;BME280;29803;51.048;4.686;2023-11-21T11:04:03;101683.88;;;12.53;100.00
44140;BME280;29803;51.048;4.686;2023-11-21T11:06:36;101675.69;;;12.63;100.00
44140;BME280;29803;51.048;4.686;2023-11-21T11:09:13;101674.69;;;12.64;100.00
44140;BME280;29803;51.048;4.686;2023-11-21T11:11:43;101682.00;;;12.80;100.00
44140;BME280;29803;51.048;4.686;2023-11-21T11:14:15;101682.00;;;12.80;100.00
44140;BME280;29803;51.048;4.686;2023-11-21T11:16:47;101685.59;;;12.88;100.00
44140;BME280;29803;51.048;4.686;2023-11-21T11:19:19;101689.13;;;12.89;100.00
44140;BME280;29803;51.048;4.686;2023-11-21T11:22:12;101695.03;;;12.92;100.00
44140;BME280;29803;51.048;4.686;2023-11-21T11:32:58;101699.59;;;13.26;100.00
44140;BME280;29803;51.048;4.686;2023-11-21T11:35:38;101695.41;;;13.32;100.00
44140;BME280;29803;51.048;4.686;2023-11-21T11:38:12;101694.22;;;13.34;100.00
44140;BME280;29803;51.048;4.686;2023-11-21T11:40:45;101703.34;;;13.41;100.00
44140;BME280;29803;51.048;4.686;2023-11-21T11:43:25;101699.81;;;13.41;100.00
44140;BME280;29803;51.048;4.686;2023-11-21T11:45:58;101700.97;;;13.38;100.00
44140;BME280;29803;51.048;4.686;2023-11-21T11:48:35;101692.72;;;13.32;100.00
44140;BME280;29803;51.048;4.686;2023-11-21T11:51:13;101698.47;;;13.03;100.00
44140;BME280;29803;51.048;4.686;2023-11-21T11:53:48;101696.78;;;13.02;100.00
44140;BME280;29803;51.048;4.686;2023-11-21T11:58:51;101695.00;;;12.84;100.00
44140;BME280;29803;51.048;4.686;2023-11-21T12:01:23;101696.34;;;12.80;100.00
44140;BME280;29803;51.048;4.686;2023-11-21T12:06:57;101705.69;;;12.68;100.00
44140;BME280;29803;51.048;4.686;2023-11-21T12:09:31;101702.81;;;12.69;100.00
44140;BME280;29803;51.048;4.686;2023-11-21T12:12:02;101713.13;;;12.74;100.00
44140;BME280;29803;51.048;4.686;2023-11-21T12:14:32;101716.34;;;12.78;100.00
44140;BME280;29803;51.048;4.686;2023-11-21T12:17:03;101717.00;;;12.80;100.00
44140;BME280;29803;51.048;4.686;2023-11-21T12:19:35;101713.34;;;12.81;100.00
44140;BME280;29803;51.048;4.686;2023-11-21T12:22:05;101717.53;;;12.83;100.00
44140;BME280;29803;51.048;4.686;2023-11-21T12:24:36;101711.16;;;12.84;100.00
44140;BME280;29803;51.048;4.686;2023-11-21T12:27:07;101710.94;;;12.78;100.00
44140;BME280;29803;51.048;4.686;2023-11-21T12:29:40;101722.94;;;12.83;100.00
44140;BME280;29803;51.048;4.686;2023-11-21T12:32:10;101713.41;;;12.97;100.00
44140;BME280;29803;51.048;4.686;2023-11-21T12:34:41;101716.31;;;13.04;100.00
44140;BME280;29803;51.048;4.686;2023-11-21T12:37:12;101727.97;;;13.12;100.00
44140;BME280;29803;51.048;4.686;2023-11-21T12:39:42;101724.44;;;13.12;100.00
44140;BME280;29803;51.048;4.686;2023-11-21T12:42:13;101727.28;;;13.10;100.00
44140;BME280;29803;51.048;4.686;2023-11-21T12:44:46;101735.38;;;13.10;100.00
44140;BME280;29803;51.048;4.686;2023-11-21T12:47:18;101741.44;;;13.12;100.00
44140;BME280;29803;51.048;4.686;2023-11-21T12:49:48;101740.44;;;13.13;100.00
44140;BME280;29803;51.048;4.686;2023-11-21T12:52:19;101741.91;;;13.08;100.00
44140;BME280;29803;51.048;4.686;2023-11-21T12:54:49;101736.84;;;13.05;100.00
44140;BME280;29803;51.048;4.686;2023-11-21T12:57:20;101747.63;;;13.05;100.00
44140;BME280;29803;51.048;4.686;2023-11-21T12:59:50;101747.84;;;13.11;100.00
44140;BME280;29803;51.048;4.686;2023-11-21T13:02:26;101751.38;;;13.12;100.00
44140;BME280;29803;51.048;4.686;2023-11-21T13:04:57;101767.38;;;13.13;100.00
44140;BME280;29803;51.048;4.686;2023-11-21T13:07:28;101753.53;;;13.08;100.00
44140;BME280;29803;51.048;4.686;2023-11-21T13:09:59;101759.44;;;13.12;100.00
44140;BME280;29803;51.048;4.686;2023-11-21T13:12:29;101762.81;;;13.14;100.00
44140;BME280;29803;51.048;4.686;2023-11-21T13:15:05;101761.50;;;13.18;100.00
44140;BME280;29803;51.048;4.686;2023-11-21T13:17:37;101764.50;;;13.15;100.00